Weather History for Vinton, IA

Change the Weather History Date:

Monday, May 20, 2013

  Actual Average Record
Temperature  
Mean Temperature 70 °F -  
Max Temperature 80 °F 76 °F 91 °F (1975)
Min Temperature 61 °F 49 °F 30 °F (1954)
Cooling Degree Days 6    
Growing Degree Days 20 (Base 50)    
Moisture  
Dew Point 59 °F    
Average Humidity 68    
Maximum Humidity 93    
Minimum Humidity 42    
Precipitation  
Precipitation 0.20 in - - ()
Sea Level Pressure  
Sea Level Pressure 29.65 in    
Wind  
Wind Speed 10 mph (SSW)    
Max Wind Speed 23 mph    
Max Gust Speed 33 mph    
Visibility 10 miles    
Events Rain    
Averages and records for this station are not official NWS values.
T = Trace of Precipitation, MM = Missing Value Source: NWS Daily Summary

Daily Weather History Graph

Daily Weather History Graph

Search for Another Location

Airport:

Trip Planner

Search our weather history database for the weather conditions in past years. The results will help you decide how hot, cold, wet, or windy it might be!

Date:

Astronomy

May. 20, 2013 Rise Set
Actual Time 5:42 AM CDT 8:27 PM CDT
Civil Twilight 5:09 AM CDT 9:00 PM CDT
Nautical Twilight 4:28 AM CDT 9:41 PM CDT
Astronomical Twilight 3:41 AM CDT 10:29 PM CDT
Moon 3:30 PM CDT (5/20) 2:42 AM CDT (5/20)
Length of Visible Light 15h 50m
Length of Day
14h 45m
Waxing Gibbous, 75% of the Moon is Illuminated
May 20
Waxing Gibbous
May 24
Full
May 31
Last Quarter
Jun 8
New
Jun 16
First Quarter

Hourly Weather History & Observations

Time (CDT) Temp. Heat Index Dew Point Humidity Pressure Visibility Wind Dir Wind Speed Gust Speed Precip Events Conditions
12:15 AM 62.6 °F - 59.9 °F 91% 29.64 in 10.0 mi NE 4.6 mph - 0.02 in Rain Light Rain
12:35 AM 62.6 °F - 59.9 °F 91% 29.66 in 10.0 mi WSW 3.5 mph - 0.02 in   Scattered Clouds
12:55 AM 62.6 °F - 60.1 °F 91% 29.65 in 10.0 mi Calm Calm - 0.02 in   Clear
1:15 AM 62.6 °F - 60.1 °F 91% 29.64 in 10.0 mi Calm Calm - N/A   Clear
1:35 AM 61.7 °F - 59.0 °F 91% 29.64 in 10.0 mi Calm Calm - N/A   Clear
1:55 AM 61.3 °F - 59.0 °F 92% 29.64 in 10.0 mi Calm Calm - N/A   Clear
2:15 AM 61.3 °F - 59.2 °F 93% 29.65 in 10.0 mi SSE 8.1 mph - N/A   Clear
2:35 AM 62.6 °F - 58.8 °F 87% 29.61 in 10.0 mi ESE 13.8 mph - N/A   Clear
3:15 AM 62.2 °F - 58.8 °F 89% 29.62 in 10.0 mi South 8.1 mph - N/A   Clear
3:35 AM 62.1 °F - 58.5 °F 88% 29.62 in 10.0 mi South 8.1 mph - N/A   Clear
3:55 AM 61.3 °F - 58.1 °F 89% 29.61 in 10.0 mi SSE 9.2 mph - N/A   Clear
4:35 AM 61.3 °F - 58.6 °F 91% 29.61 in 10.0 mi SE 9.2 mph - N/A   Clear
4:55 AM 61.3 °F - 58.5 °F 90% 29.63 in 10.0 mi SSE 8.1 mph - N/A   Clear
5:15 AM 61.3 °F - 58.5 °F 90% 29.63 in 10.0 mi SSE 8.1 mph - N/A   Clear
5:35 AM 61.3 °F - 58.1 °F 89% 29.64 in 10.0 mi South 10.4 mph - N/A   Clear
5:55 AM 61.3 °F - 57.4 °F 87% 29.65 in 10.0 mi South 11.5 mph - N/A   Clear
6:15 AM 61.3 °F - 57.6 °F 87% 29.66 in 10.0 mi SSE 8.1 mph - N/A   Clear
6:35 AM 61.3 °F - 57.2 °F 86% 29.66 in 10.0 mi South 10.4 mph - N/A   Clear
6:55 AM 62.1 °F - 57.6 °F 85% 29.67 in 10.0 mi South 12.7 mph - N/A   Clear
7:15 AM 62.6 °F - 57.6 °F 84% 29.67 in 10.0 mi South 12.7 mph 20.7 mph N/A   Clear
7:35 AM 63.1 °F - 57.4 °F 81% 29.66 in 10.0 mi South 11.5 mph - N/A   Clear
7:55 AM 64.9 °F - 58.6 °F 80% 29.68 in 10.0 mi South 13.8 mph - N/A   Clear
8:15 AM 65.3 °F - 58.3 °F 78% 29.68 in 10.0 mi South 10.4 mph 19.6 mph N/A   Clear
8:35 AM 67.3 °F - 60.6 °F 79% 29.68 in 10.0 mi South 9.2 mph 19.6 mph N/A   Clear
9:15 AM 70.2 °F - 61.9 °F 75% 29.68 in 10.0 mi South 18.4 mph 23.0 mph N/A   Clear
9:35 AM 70.2 °F - 61.2 °F 73% 29.67 in 10.0 mi South 13.8 mph 20.7 mph N/A   Scattered Clouds
9:55 AM 70.2 °F - 59.9 °F 70% 29.68 in 10.0 mi South 16.1 mph 25.3 mph N/A   Scattered Clouds
10:35 AM 71.8 °F - 60.3 °F 67% 29.68 in 10.0 mi SSW 18.4 mph 24.2 mph N/A   Clear
10:55 AM 75.2 °F - 61.9 °F 63% 29.68 in 10.0 mi SSW 15.0 mph 27.6 mph N/A   Clear
11:15 AM 75.2 °F - 60.8 °F 61% 29.68 in 10.0 mi SW 18.4 mph 31.1 mph N/A   Scattered Clouds
11:35 AM 75.2 °F - 58.8 °F 57% 29.68 in 10.0 mi SW 19.6 mph 31.1 mph N/A   Scattered Clouds
11:55 AM 75.2 °F - 57.9 °F 55% 29.68 in 10.0 mi SSW 21.9 mph 28.8 mph N/A   Clear
12:15 PM 76.3 °F - 58.8 °F 55% 29.68 in 10.0 mi SSW 19.6 mph 33.4 mph N/A   Scattered Clouds
12:35 PM 77.9 °F - 58.8 °F 52% 29.69 in 10.0 mi SSW 23.0 mph 29.9 mph N/A   Scattered Clouds
12:55 PM 77.9 °F - 58.3 °F 51% 29.69 in 10.0 mi SSW 20.7 mph 29.9 mph N/A   Clear
1:15 PM 77.9 °F - 59.5 °F 53% 29.69 in 10.0 mi SW 20.7 mph 28.8 mph N/A   Scattered Clouds
1:55 PM 77.9 °F - 57.0 °F 48% 29.69 in 10.0 mi SSW 18.4 mph 24.2 mph N/A   Scattered Clouds
2:15 PM 80.2 °F 80.3 °F 55.4 °F 42% 29.69 in 10.0 mi SW 19.6 mph 31.1 mph N/A   Scattered Clouds
2:35 PM 80.2 °F 80.3 °F 55.2 °F 42% 29.69 in 10.0 mi SSW 19.6 mph 27.6 mph N/A   Clear
2:55 PM 80.2 °F 80.6 °F 57.9 °F 46% 29.68 in 10.0 mi SW 17.3 mph 24.2 mph N/A   Scattered Clouds
3:15 PM 80.2 °F 80.5 °F 57.4 °F 45% 29.68 in 10.0 mi SSW 19.6 mph 26.5 mph N/A   Scattered Clouds
3:35 PM 80.2 °F 80.6 °F 57.7 °F 46% 29.68 in 10.0 mi SSW 17.3 mph 25.3 mph N/A   Clear
3:55 PM 80.2 °F 80.5 °F 57.2 °F 45% 29.68 in 10.0 mi SSW 16.1 mph 24.2 mph N/A   Clear
4:15 PM 80.2 °F 80.5 °F 56.8 °F 45% 29.67 in 10.0 mi SSW 18.4 mph 21.9 mph N/A   Clear
4:35 PM 80.2 °F 80.5 °F 56.8 °F 45% 29.66 in 10.0 mi SSW 16.1 mph 23.0 mph N/A   Clear
4:55 PM 80.2 °F 80.6 °F 57.6 °F 46% 29.67 in 10.0 mi SSW 17.3 mph 24.2 mph N/A   Clear
5:15 PM 80.2 °F 80.7 °F 58.1 °F 47% 29.65 in 10.0 mi SSW 15.0 mph 18.4 mph N/A   Clear
5:35 PM 80.2 °F 80.6 °F 57.6 °F 46% 29.66 in 10.0 mi SSW 17.3 mph 25.3 mph N/A   Clear
5:55 PM 80.2 °F 80.6 °F 57.6 °F 46% 29.65 in 10.0 mi SSW 17.3 mph 21.9 mph N/A   Clear
6:15 PM 80.2 °F 80.8 °F 58.8 °F 48% 29.65 in 10.0 mi SSW 19.6 mph 23.0 mph N/A   Scattered Clouds
6:35 PM 78.1 °F - 57.4 °F 49% 29.64 in 10.0 mi South 16.1 mph 25.3 mph N/A   Scattered Clouds
6:55 PM 77.9 °F - 58.5 °F 51% 29.64 in 10.0 mi South 11.5 mph 16.1 mph N/A   Scattered Clouds
7:15 PM 77.9 °F - 60.6 °F 55% 29.63 in 10.0 mi South 11.5 mph 16.1 mph N/A   Scattered Clouds
7:35 PM 77.9 °F - 61.3 °F 57% 29.63 in 10.0 mi South 12.7 mph 23.0 mph N/A   Mostly Cloudy
7:55 PM 75.2 °F - 57.7 °F 54% 29.63 in 10.0 mi South 13.8 mph - N/A   Mostly Cloudy
8:15 PM 75.2 °F - 58.3 °F 56% 29.61 in 10.0 mi SSW 11.5 mph - N/A   Mostly Cloudy
8:35 PM 75.2 °F - 59.9 °F 59% 29.61 in 10.0 mi South 6.9 mph - N/A   Mostly Cloudy
8:55 PM 75.2 °F - 61.3 °F 62% 29.61 in 10.0 mi South 6.9 mph - N/A   Mostly Cloudy
9:15 PM 75.2 °F - 61.9 °F 63% 29.61 in 10.0 mi SSW 6.9 mph - N/A   Mostly Cloudy
9:35 PM 72.7 °F - 60.3 °F 65% 29.61 in 10.0 mi WSW 4.6 mph - N/A   Mostly Cloudy
9:55 PM 72.0 °F - 61.0 °F 68% 29.60 in 10.0 mi Calm Calm - N/A   Mostly Cloudy
10:15 PM 70.2 °F - 59.5 °F 69% 29.63 in 10.0 mi WNW 16.1 mph 31.1 mph N/A   Mostly Cloudy
10:35 PM 64.4 °F - 55.8 °F 73% 29.63 in 10.0 mi WNW 15.0 mph 21.9 mph N/A   Mostly Cloudy
10:55 PM 61.7 °F - 55.6 °F 80% 29.63 in 10.0 mi NW 6.9 mph - N/A Rain Light Rain
11:15 PM 61.5 °F - 56.3 °F 83% 29.63 in 4.0 mi West 3.5 mph - 0.06 in Rain Heavy Rain
11:35 PM 61.9 °F - 57.7 °F 86% 29.63 in 4.0 mi SSW 9.2 mph 17.3 mph 0.15 in Rain Heavy Rain
11:55 PM 62.6 °F - 57.4 °F 83% 29.60 in 10.0 mi South 5.8 mph - 0.18 in Rain Light Rain